createdAt,value
2019-05-20T00:00:31.506Z,12.00
2019-05-20T00:03:05.108Z,11.50
2019-05-20T00:05:37.516Z,11.33
2019-05-20T00:08:09.852Z,11.97
2019-05-20T00:10:41.404Z,10.90
2019-05-20T00:13:16.624Z,12.07
2019-05-20T00:15:48.879Z,12.33
2019-05-20T00:18:23.564Z,11.10
2019-05-20T00:20:57.058Z,11.30
2019-05-20T00:23:30.074Z,12.23
2019-05-20T00:26:04.014Z,11.47
2019-05-20T00:28:37.915Z,11.73
2019-05-20T00:31:14.717Z,11.73
2019-05-20T00:33:46.351Z,11.53
2019-05-20T00:36:20.984Z,11.50
2019-05-20T00:39:10.896Z,11.60
2019-05-20T00:41:44.536Z,12.07
2019-05-20T00:44:19.243Z,11.57
2019-05-20T00:46:51.123Z,11.93
2019-05-20T00:49:23.903Z,11.17
2019-05-20T00:51:55.556Z,12.50
2019-05-20T00:54:28.854Z,11.57
2019-05-20T00:57:00.536Z,12.43
2019-05-20T00:59:33.164Z,12.30
2019-05-20T01:02:09.158Z,12.50
2019-05-20T01:04:40.854Z,12.17
2019-05-20T01:07:14.220Z,12.80
2019-05-20T01:09:46.079Z,13.13
2019-05-20T01:12:20.179Z,12.27
2019-05-20T01:14:51.779Z,13.20
2019-05-20T01:17:25.354Z,12.93
2019-05-20T01:19:56.870Z,14.00
2019-05-20T01:22:29.619Z,13.70
2019-05-20T01:25:02.194Z,13.43
2019-05-20T01:27:34.441Z,13.17
2019-05-20T01:30:07.751Z,13.50
2019-05-20T01:32:41.101Z,13.80
2019-05-20T01:35:15.172Z,14.17
2019-05-20T01:37:47.134Z,13.50
2019-05-20T01:40:20.702Z,13.97
2019-05-20T01:42:54.011Z,14.10
2019-05-20T01:45:26.012Z,14.20
2019-05-20T01:47:58.043Z,14.63
2019-05-20T01:50:30.777Z,14.58
2019-05-20T01:53:03.119Z,15.20
2019-05-20T01:55:35.031Z,14.73
2019-05-20T01:58:08.290Z,15.03
2019-05-20T02:00:42.281Z,14.47
2019-05-20T02:03:30.369Z,14.70
2019-05-20T02:05:50.133Z,15.13
2019-05-20T02:08:23.229Z,14.80
2019-05-20T02:10:56.707Z,14.47
2019-05-20T02:13:47.262Z,13.77
2019-05-20T02:16:23.617Z,13.33
2019-05-20T02:18:55.919Z,13.63
2019-05-20T02:21:30.838Z,13.40
2019-05-20T02:24:02.459Z,12.83
2019-05-20T02:26:34.990Z,13.50
2019-05-20T02:29:08.274Z,13.27
2019-05-20T02:31:40.429Z,12.90
2019-05-20T02:34:12.660Z,12.13
2019-05-20T02:36:45.261Z,11.93
2019-05-20T02:39:19.398Z,12.60
2019-05-20T02:41:51.426Z,11.97
2019-05-20T02:44:24.014Z,11.90
2019-05-20T02:46:55.995Z,11.70
2019-05-20T02:49:27.773Z,12.97
2019-05-20T02:51:59.419Z,12.30
2019-05-20T02:54:32.704Z,12.37
2019-05-20T02:57:04.270Z,12.03
2019-05-20T02:59:35.928Z,12.30
2019-05-20T03:02:09.043Z,12.90
2019-05-20T03:04:42.944Z,12.90
2019-05-20T03:07:16.571Z,12.97
2019-05-20T03:09:49.240Z,12.83
2019-05-20T03:12:25.044Z,13.70
2019-05-20T03:14:59.480Z,13.53
2019-05-20T03:17:33.246Z,13.47
2019-05-20T03:20:06.077Z,14.20
2019-05-20T03:22:38.049Z,13.90
2019-05-20T03:25:09.875Z,15.50
2019-05-20T03:27:42.402Z,15.03
2019-05-20T03:30:15.846Z,14.70
2019-05-20T03:32:50.323Z,13.90
2019-05-20T03:35:21.880Z,14.78
2019-05-20T03:37:54.930Z,14.57
2019-05-20T03:40:27.149Z,14.43
2019-05-20T03:43:00.973Z,14.73
2019-05-20T03:45:34.638Z,14.50
2019-05-20T03:48:08.259Z,14.85
2019-05-20T03:50:40.528Z,14.60
2019-05-20T03:53:12.876Z,14.95
2019-05-20T03:55:46.290Z,14.30
2019-05-20T03:58:19.977Z,15.40
2019-05-20T04:00:55.140Z,14.90
2019-05-20T04:03:28.555Z,14.67
2019-05-20T04:06:02.987Z,14.67
2019-05-20T04:08:35.102Z,15.90
2019-05-20T04:11:07.088Z,16.23
2019-05-20T04:13:39.208Z,16.77
2019-05-20T04:16:10.889Z,17.33
2019-05-20T04:18:44.169Z,16.93
2019-05-20T04:21:15.836Z,17.13
2019-05-20T04:23:47.442Z,17.63
2019-05-20T04:26:22.923Z,18.70
2019-05-20T04:28:54.738Z,20.03
2019-05-20T04:31:28.010Z,20.37
2019-05-20T04:33:59.764Z,20.77
2019-05-20T04:36:32.014Z,20.60
2019-05-20T04:39:05.602Z,18.37
2019-05-20T04:41:37.586Z,17.47
2019-05-20T04:44:10.167Z,18.23
2019-05-20T04:46:44.131Z,18.23
2019-05-20T04:49:17.164Z,18.70
2019-05-20T04:51:50.442Z,18.27
2019-05-20T04:54:25.260Z,19.03
2019-05-20T04:56:59.683Z,18.77
2019-05-20T04:59:33.706Z,20.30
2019-05-20T05:02:06.904Z,20.73
2019-05-20T05:04:39.801Z,22.00
2019-05-20T05:07:13.045Z,20.82
2019-05-20T05:09:46.459Z,21.00
2019-05-20T05:12:19.243Z,20.37
2019-05-20T05:14:52.615Z,19.07
2019-05-20T05:17:27.005Z,19.20
2019-05-20T05:19:59.098Z,19.67
2019-05-20T05:22:31.814Z,18.85
2019-05-20T05:25:04.976Z,17.30
2019-05-20T05:27:37.987Z,17.50
2019-05-20T05:30:09.991Z,17.60
2019-05-20T05:32:45.007Z,15.87
2019-05-20T05:35:18.284Z,17.30
2019-05-20T05:37:50.789Z,16.70
2019-05-20T05:40:26.019Z,16.03
2019-05-20T05:43:00.510Z,15.03
2019-05-20T05:45:33.895Z,14.87
2019-05-20T05:48:06.033Z,13.55
2019-05-20T05:50:38.966Z,13.40
2019-05-20T05:53:13.426Z,13.00
2019-05-20T05:55:45.385Z,12.20
2019-05-20T05:58:17.071Z,11.47
2019-05-20T06:00:49.916Z,11.27
2019-05-20T06:03:22.617Z,11.07
2019-05-20T06:06:10.601Z,10.97
2019-05-20T06:08:31.652Z,10.97
2019-05-20T06:11:03.833Z,10.73
2019-05-20T06:13:36.934Z,11.27
2019-05-20T06:16:08.516Z,11.70
2019-05-20T06:18:40.262Z,11.33
2019-05-20T06:21:12.231Z,13.53
2019-05-20T06:23:46.323Z,12.53
2019-05-20T06:26:18.997Z,11.43
2019-05-20T06:28:51.331Z,11.73
2019-05-20T06:31:23.099Z,10.03
2019-05-20T06:33:57.541Z,9.37
2019-05-20T06:36:29.110Z,8.97
2019-05-20T06:39:14.485Z,8.87
2019-05-20T06:41:48.006Z,7.80
2019-05-20T06:44:20.725Z,7.97
2019-05-20T06:46:54.240Z,9.23
2019-05-20T06:49:27.738Z,9.47
2019-05-20T06:52:00.593Z,8.17
2019-05-20T06:54:33.069Z,8.53
2019-05-20T06:57:07.669Z,10.20
2019-05-20T06:59:40.556Z,12.53
2019-05-20T07:02:14.784Z,9.90
2019-05-20T07:04:47.492Z,8.50
2019-05-20T07:07:21.429Z,6.77
2019-05-20T07:09:54.971Z,5.50
2019-05-20T07:12:40.122Z,5.20
2019-05-20T07:15:02.109Z,4.60
2019-05-20T07:17:39.033Z,5.47
2019-05-20T07:20:11.792Z,6.50
2019-05-20T07:22:55.593Z,7.13
2019-05-20T07:25:19.052Z,6.55
2019-05-20T07:27:52.877Z,7.53
2019-05-20T07:30:27.492Z,8.00
2019-05-20T07:32:59.427Z,6.30
2019-05-20T07:35:32.421Z,3.57
2019-05-20T07:38:04.159Z,2.77
2019-05-20T07:40:37.877Z,2.50
2019-05-20T07:43:09.782Z,2.60
2019-05-20T07:45:44.161Z,2.00
2019-05-20T07:48:16.765Z,1.90
2019-05-20T07:50:50.420Z,2.23
2019-05-20T07:53:27.279Z,2.35
2019-05-20T07:56:06.021Z,2.27
2019-05-20T07:58:41.890Z,1.90
2019-05-20T08:01:14.178Z,2.00
2019-05-20T08:03:46.839Z,1.80
2019-05-20T08:06:23.969Z,2.17
2019-05-20T08:09:01.836Z,1.83
2019-05-20T08:11:35.171Z,1.80
2019-05-20T08:14:07.952Z,1.70
2019-05-20T08:16:40.157Z,1.90
2019-05-20T08:19:13.469Z,1.60
2019-05-20T08:21:48.487Z,1.97
2019-05-20T08:24:23.210Z,1.63
2019-05-20T08:26:55.744Z,1.90
2019-05-20T08:29:29.619Z,1.87
2019-05-20T08:32:03.814Z,1.93
2019-05-20T08:34:35.732Z,1.70
2019-05-20T08:37:10.580Z,1.80
2019-05-20T08:39:44.408Z,1.77
2019-05-20T08:42:16.134Z,1.80
2019-05-20T08:44:48.719Z,2.00
2019-05-20T08:47:20.624Z,1.80
2019-05-20T08:49:52.505Z,1.67
2019-05-20T08:52:24.204Z,2.10
2019-05-20T08:54:58.254Z,1.63
2019-05-20T08:57:33.138Z,2.00
2019-05-20T09:00:09.260Z,1.80
2019-05-20T09:02:41.296Z,1.87
2019-05-20T09:05:14.650Z,2.12
2019-05-20T09:08:01.495Z,1.90
2019-05-20T09:10:24.502Z,2.07
2019-05-20T09:13:00.674Z,1.80
2019-05-20T09:15:33.321Z,1.80
2019-05-20T09:18:07.355Z,2.20
2019-05-20T09:20:39.469Z,2.20
2019-05-20T09:23:14.372Z,1.90
2019-05-20T09:25:47.966Z,2.00
2019-05-20T09:28:20.838Z,2.27
2019-05-20T09:30:56.129Z,2.20
2019-05-20T09:33:30.717Z,2.30
2019-05-20T09:36:05.250Z,2.30
2019-05-20T09:38:37.539Z,2.40
2019-05-20T09:41:10.914Z,2.70
2019-05-20T09:43:42.968Z,3.10
2019-05-20T09:46:14.510Z,3.70
2019-05-20T09:48:47.507Z,3.63
2019-05-20T09:51:20.578Z,3.53
2019-05-20T09:53:52.630Z,3.50
2019-05-20T09:56:24.671Z,3.58
2019-05-20T09:58:57.514Z,3.60
2019-05-20T10:01:31.901Z,3.83
2019-05-20T10:04:04.770Z,3.90
2019-05-20T10:06:37.264Z,2.90
2019-05-20T10:09:11.573Z,3.00
2019-05-20T10:11:46.335Z,3.00
2019-05-20T10:14:18.487Z,3.13
2019-05-20T10:16:52.531Z,3.90
2019-05-20T10:19:25.239Z,2.75
2019-05-20T10:21:57.468Z,3.03
2019-05-20T10:24:29.232Z,2.87
2019-05-20T10:27:02.349Z,2.70
2019-05-20T10:29:38.088Z,3.00
2019-05-20T10:32:12.280Z,2.90
2019-05-20T10:34:43.823Z,2.67
2019-05-20T10:37:16.439Z,3.50
2019-05-20T10:39:48.589Z,3.37
2019-05-20T10:42:23.970Z,3.00
2019-05-20T10:44:56.567Z,3.40
2019-05-20T10:47:29.382Z,2.90
2019-05-20T10:50:01.220Z,2.77
2019-05-20T10:52:36.516Z,2.60
2019-05-20T10:55:08.825Z,3.03
2019-05-20T10:57:40.795Z,2.77
2019-05-20T11:00:17.488Z,2.50
2019-05-20T11:02:50.371Z,3.13
2019-05-20T11:05:25.191Z,2.33
2019-05-20T11:07:57.023Z,2.67
2019-05-20T11:10:28.671Z,2.80
2019-05-20T11:13:04.224Z,2.53
2019-05-20T11:15:38.020Z,2.50
2019-05-20T11:18:09.558Z,2.75
2019-05-20T11:20:41.555Z,2.53
2019-05-20T11:23:14.270Z,2.60
2019-05-20T11:25:47.566Z,2.37
2019-05-20T11:28:21.965Z,2.40
2019-05-20T11:30:54.518Z,2.30
2019-05-20T11:33:29.038Z,2.90
2019-05-20T11:36:00.827Z,2.47
2019-05-20T11:38:34.552Z,2.75
2019-05-20T11:41:07.012Z,2.57
2019-05-20T11:43:40.701Z,3.15
2019-05-20T11:46:13.311Z,2.60
2019-05-20T11:48:47.474Z,2.40
2019-05-20T11:51:20.885Z,2.50
2019-05-20T11:53:54.426Z,2.90
2019-05-20T11:56:26.051Z,2.40
2019-05-20T11:58:59.804Z,2.30
2019-05-20T12:01:32.439Z,2.50
2019-05-20T12:04:04.948Z,2.60
2019-05-20T12:06:36.995Z,3.15
2019-05-20T12:09:10.861Z,2.47
2019-05-20T12:11:43.892Z,2.37
2019-05-20T12:14:16.364Z,2.70
2019-05-20T12:16:49.799Z,2.70
2019-05-20T12:19:21.413Z,2.40
2019-05-20T12:21:53.015Z,3.22
2019-05-20T12:24:27.089Z,2.50
2019-05-20T12:26:58.950Z,2.50
2019-05-20T12:29:31.850Z,2.40
2019-05-20T12:32:05.327Z,2.25
2019-05-20T12:34:38.789Z,2.80
2019-05-20T12:37:12.664Z,2.92
2019-05-20T12:39:45.771Z,2.70
2019-05-20T12:42:20.346Z,2.70
2019-05-20T12:44:53.046Z,2.85
2019-05-20T12:47:26.450Z,2.55
2019-05-20T12:49:59.203Z,2.60
2019-05-20T12:52:33.126Z,2.70
2019-05-20T12:55:09.482Z,2.40
2019-05-20T12:57:41.770Z,2.17
2019-05-20T13:00:16.085Z,2.53
2019-05-20T13:02:48.221Z,2.53
2019-05-20T13:05:20.584Z,3.10
2019-05-20T13:07:54.931Z,4.05
2019-05-20T13:10:31.766Z,2.70
2019-05-20T13:13:02.821Z,2.50
2019-05-20T13:15:36.773Z,2.15
2019-05-20T13:18:08.825Z,2.55
2019-05-20T13:20:40.623Z,2.65
2019-05-20T13:23:14.633Z,2.60
2019-05-20T13:25:47.680Z,2.50
2019-05-20T13:28:21.486Z,2.80
2019-05-20T13:30:55.060Z,2.60
2019-05-20T13:33:27.394Z,2.50
2019-05-20T13:35:59.271Z,2.85
2019-05-20T13:38:32.266Z,2.70
2019-05-20T13:41:05.051Z,2.92
2019-05-20T13:43:38.260Z,2.52
2019-05-20T13:46:09.890Z,3.13
2019-05-20T13:48:44.687Z,2.67
2019-05-20T13:51:18.349Z,3.30
2019-05-20T13:53:50.948Z,2.90
2019-05-20T13:56:24.469Z,2.77
2019-05-20T13:58:58.124Z,2.77
2019-05-20T14:01:30.026Z,2.67
2019-05-20T14:04:02.040Z,3.17
2019-05-20T14:06:34.819Z,3.08
2019-05-20T14:09:08.612Z,3.05
2019-05-20T14:11:41.981Z,2.92
2019-05-20T14:14:17.997Z,2.83
2019-05-20T14:16:51.756Z,3.05
2019-05-20T14:19:23.407Z,2.95
2019-05-20T14:21:56.199Z,3.10
2019-05-20T14:24:30.280Z,3.17
2019-05-20T14:27:02.073Z,2.77
2019-05-20T14:29:35.307Z,2.92
2019-05-20T14:32:08.534Z,3.05
2019-05-20T14:34:41.397Z,2.87
2019-05-20T14:37:15.752Z,2.80
2019-05-20T14:39:48.662Z,2.92
2019-05-20T14:42:21.043Z,2.58
2019-05-20T14:44:56.358Z,2.37
2019-05-20T14:47:28.383Z,2.65
2019-05-20T14:50:00.029Z,2.95
2019-05-20T14:52:32.331Z,2.62
2019-05-20T14:55:04.843Z,2.63
2019-05-20T14:57:36.775Z,2.60
2019-05-20T15:00:10.591Z,2.90
2019-05-20T15:02:44.054Z,3.05
2019-05-20T15:05:17.389Z,3.80
2019-05-20T15:07:49.631Z,3.33
2019-05-20T15:10:22.611Z,3.40
2019-05-20T15:12:56.755Z,3.70
2019-05-20T15:15:30.839Z,3.47
2019-05-20T15:18:02.558Z,3.27
2019-05-20T15:20:36.492Z,3.33
2019-05-20T15:23:08.080Z,5.27
2019-05-20T15:25:40.582Z,4.40
2019-05-20T15:28:12.855Z,4.70
2019-05-20T15:30:45.962Z,6.12
2019-05-20T15:33:17.742Z,6.83
2019-05-20T15:35:49.987Z,5.70
2019-05-20T15:38:21.925Z,5.45
2019-05-20T15:40:57.547Z,4.47
2019-05-20T15:43:30.927Z,4.12
2019-05-20T15:46:02.729Z,4.27
2019-05-20T15:48:36.061Z,5.33
2019-05-20T15:51:07.801Z,4.78
2019-05-20T15:53:40.246Z,6.03
2019-05-20T15:56:11.808Z,6.07
2019-05-20T15:58:45.100Z,4.87
2019-05-20T16:01:17.372Z,4.73
2019-05-20T16:03:51.475Z,3.70
2019-05-20T16:06:25.061Z,3.12
2019-05-20T16:08:57.839Z,3.35
2019-05-20T16:11:29.844Z,3.60
2019-05-20T16:14:02.251Z,4.20
2019-05-20T16:16:34.306Z,3.70
2019-05-20T16:19:07.733Z,3.60
2019-05-20T16:21:41.463Z,3.37
2019-05-20T16:24:13.244Z,3.42
2019-05-20T16:26:46.604Z,3.60
2019-05-20T16:29:20.501Z,4.53
2019-05-20T16:31:54.644Z,4.58
2019-05-20T16:34:28.348Z,4.97
2019-05-20T16:37:00.869Z,4.70
2019-05-20T16:39:34.649Z,5.50
2019-05-20T16:42:09.349Z,3.90
2019-05-20T16:44:44.461Z,3.77
2019-05-20T16:47:16.766Z,3.10
2019-05-20T16:49:51.355Z,3.33
2019-05-20T16:52:24.548Z,3.10
2019-05-20T16:54:56.430Z,3.30
2019-05-20T16:57:28.948Z,3.70
2019-05-20T17:00:01.046Z,3.90
2019-05-20T17:02:35.724Z,3.62
2019-05-20T17:05:09.429Z,3.73
2019-05-20T17:07:43.555Z,3.53
2019-05-20T17:10:19.448Z,3.53
2019-05-20T17:12:52.004Z,3.60
2019-05-20T17:15:24.154Z,3.80
2019-05-20T17:17:57.538Z,3.60
2019-05-20T17:20:30.524Z,3.00
2019-05-20T17:23:02.618Z,3.50
2019-05-20T17:25:36.958Z,3.08
2019-05-20T17:28:09.385Z,3.50
2019-05-20T17:30:45.243Z,3.20
2019-05-20T17:33:14.976Z,3.57
2019-05-20T17:35:47.085Z,3.75
2019-05-20T17:38:20.793Z,3.42
2019-05-20T17:40:53.503Z,3.62
2019-05-20T17:43:28.514Z,3.83
2019-05-20T17:46:02.763Z,3.90
2019-05-20T17:48:35.632Z,4.00
2019-05-20T17:51:09.000Z,3.20
2019-05-20T17:53:43.324Z,3.27
2019-05-20T17:56:15.507Z,3.60
2019-05-20T17:58:48.386Z,4.00
2019-05-20T18:01:20.442Z,4.30
2019-05-20T18:03:53.522Z,3.87
2019-05-20T18:06:25.787Z,4.30
2019-05-20T18:09:00.921Z,4.33
2019-05-20T18:11:34.515Z,4.43
2019-05-20T18:14:06.812Z,4.50
2019-05-20T18:16:39.250Z,3.90
2019-05-20T18:19:11.578Z,4.30
2019-05-20T18:21:44.743Z,8.18
2019-05-20T18:24:18.393Z,9.83
2019-05-20T18:26:51.618Z,4.20
2019-05-20T18:29:24.122Z,4.37
2019-05-20T18:31:56.497Z,4.27
2019-05-20T18:34:29.879Z,4.50
2019-05-20T18:37:02.187Z,4.30
2019-05-20T18:39:38.729Z,3.73
2019-05-20T18:42:12.424Z,3.90
2019-05-20T18:44:48.678Z,3.27
2019-05-20T18:47:23.757Z,3.77
2019-05-20T18:49:57.729Z,4.13
2019-05-20T18:52:30.703Z,4.47
2019-05-20T18:55:03.163Z,4.40
2019-05-20T18:57:37.580Z,4.13
2019-05-20T19:00:13.919Z,4.10
2019-05-20T19:02:47.054Z,4.27
2019-05-20T19:05:20.680Z,4.10
2019-05-20T19:07:53.950Z,3.60
2019-05-20T19:10:27.245Z,3.53
2019-05-20T19:13:01.042Z,3.50
2019-05-20T19:15:35.682Z,3.70
2019-05-20T19:18:11.030Z,3.70
2019-05-20T19:20:43.702Z,3.63
2019-05-20T19:23:17.827Z,3.50
2019-05-20T19:25:50.899Z,4.83
2019-05-20T19:28:25.424Z,5.00
2019-05-20T19:31:01.635Z,4.13
2019-05-20T19:33:34.322Z,3.80
2019-05-20T19:36:07.416Z,3.90
2019-05-20T19:38:40.964Z,4.30
2019-05-20T19:41:14.708Z,3.75
2019-05-20T19:43:47.640Z,3.60
2019-05-20T19:46:23.212Z,3.33
2019-05-20T19:48:55.211Z,3.50
2019-05-20T19:51:27.143Z,3.30
2019-05-20T19:53:59.694Z,3.20
2019-05-20T19:56:32.940Z,3.27
2019-05-20T19:59:06.054Z,3.23
2019-05-20T20:01:40.184Z,4.03
2019-05-20T20:04:14.247Z,4.67
2019-05-20T20:06:48.719Z,4.37
2019-05-20T20:09:22.022Z,3.93
2019-05-20T20:11:54.741Z,3.87
2019-05-20T20:14:27.216Z,4.60
2019-05-20T20:17:00.871Z,4.90
2019-05-20T20:19:32.692Z,4.37
2019-05-20T20:22:08.216Z,4.58
2019-05-20T20:24:44.410Z,4.73
2019-05-20T20:27:19.556Z,4.60
2019-05-20T20:29:51.304Z,5.07
2019-05-20T20:32:36.796Z,5.70
2019-05-20T20:34:57.724Z,4.70
2019-05-20T20:37:32.258Z,4.63
2019-05-20T20:40:06.734Z,4.03
2019-05-20T20:42:40.883Z,4.00
2019-05-20T20:45:13.265Z,4.27
2019-05-20T20:47:45.059Z,4.43
2019-05-20T20:50:20.508Z,4.57
2019-05-20T20:52:52.931Z,5.13
2019-05-20T20:55:27.553Z,4.33
2019-05-20T20:57:59.399Z,4.30
2019-05-20T21:00:31.192Z,4.30
2019-05-20T21:03:04.541Z,4.53
2019-05-20T21:05:36.775Z,5.07
2019-05-20T21:08:08.390Z,4.43
2019-05-20T21:10:40.886Z,4.90
2019-05-20T21:13:16.835Z,4.97
2019-05-20T21:15:49.448Z,4.90
2019-05-20T21:18:23.660Z,5.13
2019-05-20T21:20:56.021Z,5.50
2019-05-20T21:23:28.459Z,5.30
2019-05-20T21:26:03.135Z,5.40
2019-05-20T21:28:37.640Z,5.20
2019-05-20T21:31:12.304Z,5.23
2019-05-20T21:33:45.028Z,5.37
2019-05-20T21:36:17.323Z,5.20
2019-05-20T21:38:50.852Z,5.97
2019-05-20T21:41:27.878Z,6.60
2019-05-20T21:44:02.088Z,7.40
2019-05-20T21:46:36.880Z,7.37
2019-05-20T21:49:08.461Z,6.97
2019-05-20T21:51:43.487Z,7.07
2019-05-20T21:54:15.576Z,7.30
2019-05-20T21:56:50.327Z,7.67
2019-05-20T21:59:24.634Z,7.40
2019-05-20T22:01:58.565Z,7.73
2019-05-20T22:04:31.093Z,8.37
2019-05-20T22:07:03.949Z,7.87
2019-05-20T22:09:39.269Z,8.33
2019-05-20T22:12:13.327Z,7.97
2019-05-20T22:14:46.096Z,8.60
2019-05-20T22:17:21.120Z,8.47
2019-05-20T22:19:52.867Z,8.50
2019-05-20T22:22:32.707Z,8.25
2019-05-20T22:25:09.856Z,8.28
2019-05-20T22:27:41.821Z,7.93
2019-05-20T22:30:15.219Z,8.10
2019-05-20T22:32:48.235Z,7.90
2019-05-20T22:35:21.000Z,7.67
2019-05-20T22:37:54.250Z,8.57
2019-05-20T22:40:28.616Z,7.93
2019-05-20T22:43:01.021Z,7.37
2019-05-20T22:45:33.334Z,7.47
2019-05-20T22:48:06.396Z,8.07
2019-05-20T22:50:40.420Z,7.67
2019-05-20T22:53:14.611Z,8.23
2019-05-20T22:55:47.321Z,8.00
2019-05-20T22:58:21.919Z,8.40
2019-05-20T23:00:57.572Z,8.67
2019-05-20T23:03:30.898Z,8.60
2019-05-20T23:06:05.859Z,8.30
2019-05-20T23:08:39.885Z,8.07
2019-05-20T23:11:13.692Z,7.67
2019-05-20T23:13:46.514Z,8.63
2019-05-20T23:16:19.991Z,8.18
2019-05-20T23:18:52.996Z,7.93
2019-05-20T23:21:25.867Z,7.70
2019-05-20T23:23:58.948Z,7.87
2019-05-20T23:26:31.083Z,11.93
2019-05-20T23:29:04.308Z,7.63
2019-05-20T23:31:36.754Z,7.40
2019-05-20T23:34:12.766Z,7.50
2019-05-20T23:36:44.220Z,7.70
2019-05-20T23:39:16.658Z,8.25
2019-05-20T23:41:48.924Z,8.10
2019-05-20T23:44:23.004Z,8.13
2019-05-20T23:46:56.079Z,7.50
2019-05-20T23:49:29.871Z,8.47
2019-05-20T23:52:02.953Z,8.23
2019-05-20T23:54:36.694Z,9.40
2019-05-20T23:57:08.972Z,9.23
2019-05-20T23:59:42.849Z,7.90
